Time;durP1;ratioP1;P1;durP2;ratioP2;P2;SDS_P1;SDS_P2;PMS_P1;PMS_P2;Temp;Humidity;BMP_temperature;BMP_pressure;BME280_temperature;BME280_humidity;BME280_pressure;Samples;Min_cycle;Max_cycle;Signal;HPM_P1;HPM_P2
2021/09/16 00:00:00;;;;;;;10.50;3.78;;;28.30;80.60;;;;;;5024590;28;20210;-45
2021/09/16 00:02:26;;;;;;;20.65;4.00;;;28.30;80.50;;;;;;5025009;28;20085;-45
2021/09/16 00:04:53;;;;;;;14.88;3.75;;;28.30;80.30;;;;;;5024454;28;20045;-52
2021/09/16 00:07:19;;;;;;;5.10;3.00;;;28.40;80.30;;;;;;5024591;28;20258;-55
2021/09/16 00:09:46;;;;;;;6.40;2.90;;;28.40;80.00;;;;;;5024248;28;20030;-47
2021/09/16 00:12:13;;;;;;;6.22;2.28;;;28.40;80.00;;;;;;5024712;28;20118;-55
2021/09/16 00:14:39;;;;;;;4.85;2.30;;;28.50;80.40;;;;;;5024224;28;20030;-54
2021/09/16 00:17:06;;;;;;;4.35;2.60;;;28.50;80.30;;;;;;5024627;28;20030;-46
2021/09/16 00:19:33;;;;;;;10.57;2.85;;;28.60;79.80;;;;;;5024150;28;20334;-51
2021/09/16 00:21:59;;;;;;;5.63;2.95;;;28.60;79.80;;;;;;5024421;28;20033;-46
2021/09/16 00:24:26;;;;;;;13.10;3.33;;;28.70;79.60;;;;;;5022469;28;20017;-51
2021/09/16 00:26:53;;;;;;;7.97;2.50;;;28.80;79.60;;;;;;5022745;28;20026;-52
2021/09/16 00:29:20;;;;;;;6.00;2.25;;;28.90;79.40;;;;;;5024338;28;20017;-51
2021/09/16 00:31:47;;;;;;;5.65;2.35;;;28.90;79.50;;;;;;5024694;28;20068;-51
2021/09/16 00:34:14;;;;;;;8.68;2.90;;;29.00;79.40;;;;;;5024182;28;20311;-48
2021/09/16 00:36:40;;;;;;;12.27;2.78;;;29.10;80.00;;;;;;5024392;28;20030;-56
2021/09/16 00:39:07;;;;;;;12.45;3.22;;;29.10;79.60;;;;;;5024119;28;20018;-48
2021/09/16 00:41:34;;;;;;;8.65;3.20;;;29.10;79.50;;;;;;5023873;28;20097;-52
2021/09/16 00:44:01;;;;;;;6.93;2.92;;;29.10;79.30;;;;;;5024048;28;20360;-47
2021/09/16 00:46:28;;;;;;;8.52;3.58;;;29.10;79.00;;;;;;5023072;28;20302;-52
2021/09/16 00:48:55;;;;;;;8.35;3.35;;;29.20;79.40;;;;;;5023738;28;20045;-48
2021/09/16 00:51:22;;;;;;;8.40;3.03;;;29.10;79.20;;;;;;5024015;28;20025;-52
2021/09/16 00:53:49;;;;;;;9.88;3.40;;;29.20;79.20;;;;;;5024205;28;20322;-52
2021/09/16 00:56:17;;;;;;;8.10;2.90;;;29.20;79.60;;;;;;5023958;28;20148;-51
2021/09/16 00:58:49;;;;;;;9.60;3.03;;;29.20;80.00;;;;;;5024486;28;20021;-55
2021/09/16 01:01:16;;;;;;;12.35;3.22;;;29.20;80.10;;;;;;5026884;28;20306;-51
2021/09/16 01:03:45;;;;;;;6.35;3.10;;;29.20;80.30;;;;;;5027643;28;20080;-47
2021/09/16 01:06:12;;;;;;;12.40;3.83;;;29.20;80.50;;;;;;5026445;28;20045;-51
2021/09/16 01:08:40;;;;;;;8.73;3.72;;;29.20;80.80;;;;;;5027574;28;20105;-52
2021/09/16 01:11:07;;;;;;;8.32;3.92;;;29.20;81.10;;;;;;5026394;28;20038;-52
2021/09/16 01:13:34;;;;;;;11.82;4.43;;;29.20;81.30;;;;;;5027693;28;20021;-49
2021/09/16 01:16:01;;;;;;;10.88;4.70;;;29.20;81.40;;;;;;5027518;28;20026;-53
2021/09/16 01:18:28;;;;;;;21.50;4.32;;;29.20;81.70;;;;;;5027461;28;20036;-52
2021/09/16 01:20:55;;;;;;;12.65;4.30;;;29.20;81.70;;;;;;5027427;28;20022;-51
2021/09/16 01:23:23;;;;;;;16.08;4.35;;;29.10;82.30;;;;;;5027267;28;20026;-50
2021/09/16 01:25:50;;;;;;;11.88;4.22;;;29.10;82.50;;;;;;5027242;28;20025;-47
2021/09/16 01:28:17;;;;;;;12.32;4.22;;;29.10;82.50;;;;;;5027251;28;20064;-55
2021/09/16 01:30:48;;;;;;;15.32;3.95;;;29.10;83.00;;;;;;5027390;28;20030;-46
2021/09/16 01:33:16;;;;;;;15.90;4.22;;;29.00;83.30;;;;;;5027532;28;20025;-50
2021/09/16 01:35:43;;;;;;;15.35;6.13;;;29.00;83.40;;;;;;5027682;28;20254;-51
2021/09/16 01:38:10;;;;;;;110.45;17.17;;;29.00;83.30;;;;;;5027257;28;20021;-49
2021/09/16 01:40:37;;;;;;;155.65;20.85;;;29.00;83.50;;;;;;5026889;28;20034;-47
2021/09/16 01:43:04;;;;;;;133.85;16.73;;;29.00;83.70;;;;;;5027196;28;20017;-49
2021/09/16 01:45:31;;;;;;;159.05;20.35;;;29.00;83.90;;;;;;5026987;28;20026;-50
2021/09/16 01:47:58;;;;;;;197.25;22.55;;;29.00;84.00;;;;;;5025850;28;20025;-51
2021/09/16 01:50:26;;;;;;;181.85;20.77;;;29.00;84.20;;;;;;5026808;28;20053;-48
2021/09/16 01:52:54;;;;;;;120.70;16.40;;;29.00;84.20;;;;;;5026780;28;20053;-50
2021/09/16 01:55:22;;;;;;;84.22;13.13;;;29.00;84.50;;;;;;5026593;28;20026;-54
2021/09/16 01:57:50;;;;;;;58.28;11.18;;;29.00;85.20;;;;;;5026723;28;20177;-50
2021/09/16 02:00:18;;;;;;;48.13;8.50;;;28.90;85.30;;;;;;5026945;28;20010;-54
2021/09/16 02:02:47;;;;;;;39.78;7.93;;;28.80;85.40;;;;;;5027094;28;20089;-52
2021/09/16 02:05:15;;;;;;;29.23;6.93;;;28.80;85.70;;;;;;5026605;28;20026;-49
2021/09/16 02:07:42;;;;;;;32.38;7.75;;;28.60;85.80;;;;;;5026751;28;20030;-54
2021/09/16 02:10:10;;;;;;;27.30;5.75;;;28.70;86.00;;;;;;5026473;28;20022;-53
2021/09/16 02:12:37;;;;;;;24.63;5.97;;;28.60;85.90;;;;;;5026778;28;20030;-51
2021/09/16 02:15:04;;;;;;;18.08;5.57;;;28.60;85.90;;;;;;5026330;28;20037;-47
2021/09/16 02:17:31;;;;;;;11.75;4.38;;;28.60;85.90;;;;;;5026899;28;20034;-52
2021/09/16 02:19:58;;;;;;;21.83;6.10;;;28.60;85.70;;;;;;5025397;28;20024;-49
2021/09/16 02:22:25;;;;;;;23.23;9.10;;;28.70;85.40;;;;;;5025328;28;20076;-52
2021/09/16 02:24:51;;;;;;;33.97;20.73;;;28.70;85.60;;;;;;5025024;28;20262;-48
2021/09/16 02:27:18;;;;;;;34.17;19.02;;;28.70;85.50;;;;;;5026610;28;20079;-49
2021/09/16 02:29:48;;;;;;;26.48;15.57;;;28.70;85.20;;;;;;5026066;28;20022;-49
2021/09/16 02:32:15;;;;;;;30.45;14.23;;;28.70;85.30;;;;;;5026321;28;20060;-52
2021/09/16 02:34:41;;;;;;;24.02;12.85;;;28.70;85.30;;;;;;5025952;28;20040;-57
2021/09/16 02:37:09;;;;;;;20.20;11.70;;;28.70;85.30;;;;;;5026330;28;20026;-50
2021/09/16 02:39:36;;;;;;;23.55;10.80;;;28.70;85.50;;;;;;5025996;28;20214;-51
2021/09/16 02:42:03;;;;;;;19.65;10.15;;;28.70;85.80;;;;;;5026196;28;20030;-48
2021/09/16 02:44:30;;;;;;;23.48;8.43;;;28.60;85.90;;;;;;5024546;28;20014;-58
2021/09/16 02:46:56;;;;;;;22.80;8.65;;;28.60;86.10;;;;;;5026031;28;20029;-57
2021/09/16 02:49:23;;;;;;;15.27;7.97;;;28.50;87.00;;;;;;5026011;28;20021;-57
2021/09/16 02:51:53;;;;;;;16.80;7.72;;;28.40;87.30;;;;;;5026001;28;20025;-58
2021/09/16 02:54:20;;;;;;;25.13;8.10;;;28.40;87.60;;;;;;5025391;28;20068;-55
2021/09/16 02:56:47;;;;;;;22.77;8.25;;;28.40;87.90;;;;;;5025995;28;20026;-57
2021/09/16 02:59:14;;;;;;;21.52;8.07;;;28.30;88.20;;;;;;5025536;28;20341;-56
2021/09/16 03:01:40;;;;;;;17.95;7.20;;;28.30;88.60;;;;;;5025471;28;20026;-55
2021/09/16 03:04:07;;;;;;;17.67;7.95;;;28.30;88.90;;;;;;5025418;28;20195;-57
2021/09/16 03:06:34;;;;;;;18.05;7.57;;;28.30;88.90;;;;;;5025586;28;20030;-58
2021/09/16 03:09:01;;;;;;;21.75;8.35;;;28.30;89.10;;;;;;5025232;28;20042;-58
2021/09/16 03:11:27;;;;;;;22.50;9.93;;;28.20;89.30;;;;;;5025653;28;20145;-55
2021/09/16 03:13:54;;;;;;;20.25;8.32;;;28.20;89.50;;;;;;5025401;28;20049;-59
2021/09/16 03:16:21;;;;;;;18.63;7.43;;;28.10;89.60;;;;;;5025290;28;20041;-56
2021/09/16 03:18:47;;;;;;;13.55;6.82;;;28.10;89.60;;;;;;5025075;28;20018;-56
2021/09/16 03:21:14;;;;;;;10.60;6.97;;;28.10;89.30;;;;;;5025226;28;20064;-58
2021/09/16 03:23:41;;;;;;;15.32;7.15;;;28.20;89.20;;;;;;5023931;28;20032;-56
2021/09/16 03:26:07;;;;;;;27.42;9.55;;;28.20;89.60;;;;;;5025420;28;20034;-58
2021/09/16 03:28:38;;;;;;;23.38;9.77;;;28.10;90.00;;;;;;5025077;28;20335;-57
2021/09/16 03:31:05;;;;;;;30.90;8.85;;;28.00;90.10;;;;;;5025040;28;20053;-56
2021/09/16 03:33:32;;;;;;;15.70;7.90;;;28.00;90.20;;;;;;5024982;28;20028;-54
2021/09/16 03:35:59;;;;;;;17.42;7.20;;;27.90;90.10;;;;;;5024804;28;20034;-54
2021/09/16 03:38:26;;;;;;;26.35;8.30;;;27.90;90.20;;;;;;5024895;28;20077;-56
2021/09/16 03:40:53;;;;;;;26.83;8.52;;;27.90;90.30;;;;;;5025234;28;20076;-54
2021/09/16 03:43:19;;;;;;;19.23;6.82;;;27.80;90.30;;;;;;5024701;28;20045;-54
2021/09/16 03:45:46;;;;;;;19.70;7.22;;;27.80;90.40;;;;;;5024692;28;20209;-55
2021/09/16 03:48:13;;;;;;;15.18;6.93;;;27.80;90.50;;;;;;5024679;28;20025;-55
2021/09/16 03:50:39;;;;;;;13.05;7.43;;;27.80;90.40;;;;;;5024517;28;20195;-56
2021/09/16 03:53:06;;;;;;;14.52;7.88;;;27.80;90.30;;;;;;5024590;28;20344;-55
2021/09/16 03:55:33;;;;;;;13.93;6.85;;;27.80;90.40;;;;;;5024508;28;20040;-57
2021/09/16 03:58:00;;;;;;;15.32;6.70;;;27.80;90.60;;;;;;5024683;28;20201;-54
2021/09/16 04:00:26;;;;;;;12.55;6.97;;;27.80;90.60;;;;;;5024187;28;20077;-57
2021/09/16 04:02:53;;;;;;;10.05;7.03;;;27.80;90.70;;;;;;5021596;28;20022;-59
2021/09/16 04:05:20;;;;;;;14.35;7.68;;;27.80;90.80;;;;;;5024490;28;20080;-58
2021/09/16 04:07:46;;;;;;;11.95;7.75;;;27.70;90.90;;;;;;5024242;28;20228;-59
2021/09/16 04:10:13;;;;;;;14.00;7.20;;;27.70;90.90;;;;;;5024470;28;20360;-57
2021/09/16 04:12:39;;;;;;;12.20;7.10;;;27.70;90.90;;;;;;5036217;28;20210;-56
2021/09/16 04:15:06;;;;;;;12.75;6.80;;;27.70;90.90;;;;;;5044008;28;20089;-59
2021/09/16 04:17:33;;;;;;;10.65;6.53;;;27.70;90.80;;;;;;5044285;28;20305;-57
2021/09/16 04:19:59;;;;;;;10.32;6.35;;;27.60;90.90;;;;;;5044250;28;20032;-57
2021/09/16 04:22:26;;;;;;;7.38;5.88;;;27.60;90.90;;;;;;5043695;28;20333;-55
2021/09/16 04:24:52;;;;;;;11.25;5.60;;;27.60;90.90;;;;;;5043971;28;20037;-56
2021/09/16 04:27:19;;;;;;;9.23;5.65;;;27.60;90.80;;;;;;5042876;28;20030;-56
2021/09/16 04:29:46;;;;;;;23.90;7.18;;;27.60;90.70;;;;;;5043907;28;20036;-57
2021/09/16 04:32:12;;;;;;;148.25;18.90;;;27.70;90.50;;;;;;5043991;28;20097;-58
2021/09/16 04:34:39;;;;;;;104.82;15.82;;;27.70;90.50;;;;;;5043694;28;20025;-48
2021/09/16 04:37:06;;;;;;;108.55;17.23;;;27.70;90.60;;;;;;5043996;28;20068;-45
2021/09/16 04:39:34;;;;;;;107.85;15.00;;;27.80;90.50;;;;;;5043532;28;20017;-54
2021/09/16 04:42:00;;;;;;;76.93;12.65;;;27.70;90.50;;;;;;5043932;28;20085;-47
2021/09/16 04:44:27;;;;;;;70.50;12.18;;;27.80;90.50;;;;;;5043661;28;20017;-57
2021/09/16 04:46:54;;;;;;;68.32;11.10;;;27.80;90.40;;;;;;5043767;28;20038;-52
2021/09/16 04:49:20;;;;;;;49.85;10.20;;;27.90;90.40;;;;;;5043762;28;20087;-55
2021/09/16 04:51:47;;;;;;;44.22;10.23;;;27.90;90.40;;;;;;5043513;28;20033;-47
2021/09/16 04:54:13;;;;;;;38.90;8.65;;;27.90;90.30;;;;;;5043552;28;20029;-54
2021/09/16 04:56:40;;;;;;;38.97;10.27;;;27.90;90.50;;;;;;5043584;28;20029;-58
2021/09/16 04:59:06;;;;;;;29.35;13.55;;;27.90;90.40;;;;;;5043747;28;20024;-55
2021/09/16 05:01:33;;;;;;;34.17;11.38;;;27.90;90.30;;;;;;5043480;28;20071;-47
2021/09/16 05:04:03;;;;;;;26.55;10.90;;;27.90;90.30;;;;;;5023748;28;20085;-51
2021/09/16 05:06:30;;;;;;;20.58;10.02;;;27.90;90.20;;;;;;5023265;28;20030;-55
2021/09/16 05:08:56;;;;;;;20.52;8.00;;;27.80;90.10;;;;;;5023627;28;20060;-47
2021/09/16 05:11:23;;;;;;;61.92;11.00;;;27.80;90.10;;;;;;5024619;28;20026;-52
2021/09/16 05:13:50;;;;;;;41.60;11.02;;;27.80;90.00;;;;;;5043380;28;20077;-48
2021/09/16 05:16:17;;;;;;;110.35;16.98;;;27.70;90.00;;;;;;5043331;28;20321;-48
2021/09/16 05:18:43;;;;;;;112.47;18.30;;;27.80;90.10;;;;;;5043510;28;20018;-51
2021/09/16 05:21:11;;;;;;;136.25;21.15;;;27.70;90.10;;;;;;5043609;28;20185;-47
2021/09/16 05:23:38;;;;;;;74.95;14.07;;;27.70;90.10;;;;;;5043140;28;20041;-53
2021/09/16 05:26:04;;;;;;;64.88;12.88;;;27.70;90.10;;;;;;5043503;28;20029;-47
2021/09/16 05:28:31;;;;;;;174.00;22.48;;;27.70;90.10;;;;;;5043175;28;20079;-52
2021/09/16 05:30:57;;;;;;;114.97;17.65;;;27.70;90.00;;;;;;5043448;28;20306;-52
2021/09/16 05:33:24;;;;;;;77.15;13.05;;;27.70;90.10;;;;;;5043153;28;20025;-53
2021/09/16 05:36:15;;;;;;;94.32;14.38;;;27.70;90.10;;;;;;5043338;28;20029;-47
2021/09/16 05:38:42;;;;;;;60.22;11.50;;;27.60;90.10;;;;;;5043394;28;20073;-44
2021/09/16 05:41:08;;;;;;;90.55;14.55;;;27.60;90.20;;;;;;5043322;28;20208;-49
2021/09/16 05:43:35;;;;;;;108.20;13.73;;;27.60;90.20;;;;;;5043011;28;20018;-50
2021/09/16 05:46:01;;;;;;;58.92;11.13;;;27.60;90.30;;;;;;5044359;28;20032;-47
2021/09/16 05:48:28;;;;;;;38.53;9.20;;;27.60;90.30;;;;;;5046716;28;20029;-44
2021/09/16 05:50:56;;;;;;;40.95;11.80;;;27.60;90.30;;;;;;5046937;28;20026;-47
2021/09/16 05:53:22;;;;;;;37.55;12.50;;;27.60;90.30;;;;;;5046869;28;20049;-46
2021/09/16 05:55:49;;;;;;;30.20;11.10;;;27.60;90.20;;;;;;5046519;28;20298;-53
2021/09/16 05:58:16;;;;;;;17.75;7.68;;;27.60;90.20;;;;;;5046445;28;20020;-54
2021/09/16 06:00:43;;;;;;;26.80;11.65;;;27.50;90.20;;;;;;5046831;28;20037;-47
2021/09/16 06:03:10;;;;;;;31.25;11.38;;;27.40;90.30;;;;;;5046364;28;20017;-46
2021/09/16 06:05:36;;;;;;;31.67;9.80;;;27.40;90.30;;;;;;5046357;28;20056;-51
2021/09/16 06:08:03;;;;;;;41.65;9.63;;;27.40;90.30;;;;;;5046201;28;20372;-52
2021/09/16 06:10:30;;;;;;;27.98;8.63;;;27.40;90.30;;;;;;5046449;28;20022;-46
2021/09/16 06:12:56;;;;;;;22.10;7.55;;;27.40;90.30;;;;;;5046173;28;20067;-52
2021/09/16 06:15:23;;;;;;;21.73;6.85;;;27.40;90.30;;;;;;5046185;28;20029;-53
2021/09/16 06:17:50;;;;;;;13.93;6.10;;;27.40;90.30;;;;;;5045947;28;20018;-48
2021/09/16 06:20:17;;;;;;;15.32;5.30;;;27.40;90.20;;;;;;5043226;28;20021;-45
2021/09/16 06:22:46;;;;;;;17.15;4.63;;;27.40;90.20;;;;;;5035457;28;20049;-52
2021/09/16 06:25:14;;;;;;;9.50;4.78;;;27.50;90.10;;;;;;5026867;28;20205;-46
2021/09/16 06:27:43;;;;;;;9.80;4.32;;;27.40;90.00;;;;;;5038041;28;20316;-46
2021/09/16 06:30:10;;;;;;;10.40;4.85;;;27.40;90.10;;;;;;5046557;28;20144;-48
2021/09/16 06:32:37;;;;;;;11.55;5.35;;;27.40;90.20;;;;;;5045735;28;20056;-54
2021/09/16 06:35:08;;;;;;;12.70;5.53;;;27.40;90.10;;;;;;5046283;28;20021;-48
2021/09/16 06:37:34;;;;;;;12.57;5.38;;;27.50;90.00;;;;;;5046828;28;20029;-51
2021/09/16 06:40:01;;;;;;;11.25;5.38;;;27.50;89.90;;;;;;5046275;28;20202;-53
2021/09/16 06:42:28;;;;;;;10.48;4.70;;;27.50;89.90;;;;;;5046629;28;20052;-47
2021/09/16 06:44:54;;;;;;;12.43;4.65;;;27.40;89.90;;;;;;5046310;28;20034;-47
2021/09/16 06:47:21;;;;;;;7.85;3.78;;;27.50;90.00;;;;;;5046556;28;20033;-47
2021/09/16 06:49:48;;;;;;;8.27;3.75;;;27.40;90.10;;;;;;5046170;28;20028;-48
2021/09/16 06:52:17;;;;;;;9.85;3.97;;;27.40;90.00;;;;;;5046016;28;20090;-53
2021/09/16 06:54:44;;;;;;;6.22;3.28;;;27.40;89.90;;;;;;5046037;28;20029;-51
2021/09/16 06:57:11;;;;;;;9.68;3.15;;;27.50;89.80;;;;;;5045472;28;20254;-47
2021/09/16 06:59:37;;;;;;;6.45;3.10;;;27.40;89.70;;;;;;5046276;28;20071;-51
2021/09/16 07:02:04;;;;;;;5.05;2.80;;;27.40;89.70;;;;;;5046330;28;20028;-51
2021/09/16 07:04:31;;;;;;;4.82;2.70;;;27.40;89.50;;;;;;5045854;28;20017;-53
2021/09/16 07:07:04;;;;;;;8.05;3.40;;;27.40;89.50;;;;;;5046097;28;20040;-50
2021/09/16 07:09:31;;;;;;;8.18;3.20;;;27.40;89.50;;;;;;5045650;28;20056;-50
2021/09/16 07:11:58;;;;;;;10.48;3.55;;;27.40;89.50;;;;;;5045993;28;20036;-52
2021/09/16 07:14:26;;;;;;;7.78;3.00;;;27.30;89.30;;;;;;5045618;28;20032;-50
2021/09/16 07:16:56;;;;;;;7.75;2.90;;;27.40;89.30;;;;;;5045925;28;20021;-46
2021/09/16 07:19:23;;;;;;;9.48;3.13;;;27.40;89.30;;;;;;5045491;28;20029;-51
2021/09/16 07:21:50;;;;;;;7.57;3.00;;;27.30;89.30;;;;;;5045852;28;20022;-46
2021/09/16 07:24:17;;;;;;;5.35;3.20;;;27.30;89.40;;;;;;5045515;28;20053;-49
2021/09/16 07:26:49;;;;;;;7.28;3.35;;;27.30;89.30;;;;;;5045621;28;20037;-52
2021/09/16 07:29:18;;;;;;;8.93;3.65;;;27.30;89.10;;;;;;5045696;28;20264;-46
2021/09/16 07:31:44;;;;;;;13.85;3.17;;;27.40;89.10;;;;;;5045605;28;20036;-46
2021/09/16 07:34:11;;;;;;;7.32;3.05;;;27.40;88.90;;;;;;5045135;28;20217;-48
2021/09/16 07:36:39;;;;;;;6.72;2.90;;;27.40;88.80;;;;;;5044929;28;20091;-49
2021/09/16 07:39:06;;;;;;;8.25;3.08;;;27.30;88.90;;;;;;5045091;28;20277;-49
2021/09/16 07:41:33;;;;;;;7.35;3.20;;;27.30;88.80;;;;;;5045049;28;20249;-47
2021/09/16 07:43:59;;;;;;;7.40;3.22;;;27.30;89.20;;;;;;5045189;28;20026;-48
2021/09/16 07:46:27;;;;;;;49.38;7.00;;;27.30;89.20;;;;;;5045319;28;20085;-54
2021/09/16 07:48:53;;;;;;;81.68;10.85;;;27.20;89.40;;;;;;5044887;28;20021;-56
2021/09/16 07:51:20;;;;;;;104.60;12.80;;;27.20;89.60;;;;;;5044949;28;20051;-47
2021/09/16 07:53:46;;;;;;;50.22;7.70;;;27.10;89.70;;;;;;5044951;28;20083;-47
2021/09/16 07:56:13;;;;;;;93.32;12.48;;;27.10;89.80;;;;;;5044795;28;20344;-47
2021/09/16 07:58:43;;;;;;;83.35;11.10;;;27.10;90.00;;;;;;5044745;28;20049;-48
2021/09/16 08:01:10;;;;;;;65.60;9.65;;;27.10;90.00;;;;;;5044892;28;20353;-47
2021/09/16 08:03:37;;;;;;;31.98;5.82;;;27.10;90.10;;;;;;5044727;28;20032;-48
2021/09/16 08:06:04;;;;;;;76.90;10.70;;;27.10;90.10;;;;;;5044797;28;20302;-50
2021/09/16 08:08:31;;;;;;;77.90;9.82;;;27.10;90.10;;;;;;5044008;28;20069;-51
2021/09/16 08:11:06;;;;;;;58.58;8.43;;;27.10;90.20;;;;;;5044686;28;20036;-51
2021/09/16 08:13:39;;;;;;;36.00;6.45;;;27.10;90.20;;;;;;5044475;28;20049;-56
2021/09/16 08:16:09;;;;;;;51.70;7.90;;;27.10;90.30;;;;;;5044385;28;20037;-49
2021/09/16 08:18:36;;;;;;;71.10;9.88;;;27.00;90.30;;;;;;5044328;28;20314;-51
2021/09/16 08:21:03;;;;;;;81.72;11.95;;;27.00;90.30;;;;;;5044263;28;20033;-52
2021/09/16 08:23:30;;;;;;;87.70;10.27;;;27.00;90.30;;;;;;5043970;28;20364;-52
2021/09/16 08:25:57;;;;;;;59.45;7.95;;;27.00;90.30;;;;;;5044030;28;20219;-51
2021/09/16 08:28:24;;;;;;;50.45;7.97;;;27.00;90.30;;;;;;5043928;28;20032;-49
2021/09/16 08:30:51;;;;;;;32.90;6.25;;;27.00;90.40;;;;;;5043974;28;20029;-53
2021/09/16 08:33:18;;;;;;;19.95;5.18;;;27.00;90.40;;;;;;5043924;28;20032;-52
2021/09/16 08:35:44;;;;;;;20.38;3.92;;;27.00;90.40;;;;;;5043816;28;20240;-52
2021/09/16 08:38:11;;;;;;;15.25;3.50;;;27.00;90.40;;;;;;5044017;28;20021;-49
2021/09/16 08:40:38;;;;;;;13.32;3.70;;;27.00;90.50;;;;;;5044476;28;20014;-47
2021/09/16 08:43:04;;;;;;;10.02;3.05;;;27.00;90.50;;;;;;5044342;28;20025;-51
2021/09/16 08:45:31;;;;;;;9.30;2.80;;;27.00;90.50;;;;;;5044263;28;20217;-53
2021/09/16 08:47:58;;;;;;;8.50;3.42;;;27.00;90.80;;;;;;5044165;28;20064;-52
2021/09/16 08:50:30;;;;;;;7.50;3.10;;;26.90;90.60;;;;;;5044174;28;20026;-49
2021/09/16 08:52:57;;;;;;;8.45;2.97;;;26.90;90.70;;;;;;5044243;28;20025;-50
2021/09/16 08:55:25;;;;;;;7.78;2.95;;;26.90;90.80;;;;;;5044046;28;20021;-53
2021/09/16 08:57:58;;;;;;;13.30;2.90;;;26.90;90.70;;;;;;5044192;28;20063;-53
2021/09/16 09:00:27;;;;;;;6.43;2.85;;;27.00;90.70;;;;;;5043974;28;20022;-54
2021/09/16 09:02:55;;;;;;;9.02;3.10;;;26.90;90.70;;;;;;5044169;28;20067;-54
2021/09/16 09:05:23;;;;;;;5.97;3.15;;;26.90;90.70;;;;;;5044146;28;20021;-51
2021/09/16 09:07:52;;;;;;;6.93;3.15;;;26.80;90.80;;;;;;5043699;28;20033;-52
2021/09/16 09:10:43;;;;;;;8.50;2.80;;;26.80;90.90;;;;;;5044045;28;20021;-53
2021/09/16 09:13:19;;;;;;;7.82;2.75;;;26.80;91.00;;;;;;5036899;28;20227;-50
2021/09/16 09:15:57;;;;;;;5.95;2.80;;;26.90;90.90;;;;;;5043969;28;20114;-51
2021/09/16 09:18:23;;;;;;;6.88;2.90;;;26.90;90.90;;;;;;5043876;28;20036;-50
2021/09/16 09:20:56;;;;;;;11.30;3.05;;;26.90;90.80;;;;;;5044638;28;20021;-51
2021/09/16 09:23:34;;;;;;;10.10;2.83;;;26.90;90.70;;;;;;5048157;28;20013;-55
2021/09/16 09:26:27;;;;;;;13.05;3.10;;;26.80;90.80;;;;;;5047883;28;20171;-53
2021/09/16 09:29:18;;;;;;;6.72;2.78;;;26.80;90.80;;;;;;5046980;28;20025;-55
2021/09/16 09:31:59;;;;;;;7.63;2.85;;;26.80;90.90;;;;;;5047636;28;20069;-50
2021/09/16 09:34:32;;;;;;;5.72;2.92;;;26.80;90.80;;;;;;5047657;28;20092;-55
2021/09/16 09:37:11;;;;;;;10.35;2.85;;;26.80;90.80;;;;;;5047556;28;20025;-50
2021/09/16 09:39:40;;;;;;;8.20;3.08;;;26.80;90.80;;;;;;5047553;28;20265;-51
2021/09/16 09:42:19;;;;;;;8.40;3.00;;;26.80;90.80;;;;;;5047908;28;20025;-51
2021/09/16 09:44:46;;;;;;;10.38;3.15;;;26.80;90.80;;;;;;5047327;28;20017;-50
2021/09/16 09:47:14;;;;;;;11.73;3.08;;;26.80;90.80;;;;;;5047700;28;20029;-50
2021/09/16 09:49:40;;;;;;;6.97;2.97;;;26.80;90.80;;;;;;5047327;28;20048;-48
2021/09/16 09:52:07;;;;;;;7.95;2.92;;;26.80;90.80;;;;;;5047539;28;20096;-49
2021/09/16 09:54:43;;;;;;;6.60;3.40;;;26.80;90.70;;;;;;5047205;28;20026;-51
2021/09/16 09:57:17;;;;;;;6.45;2.70;;;26.80;90.70;;;;;;5047356;28;20026;-48
2021/09/16 10:00:02;;;;;;;7.05;2.85;;;26.80;90.70;;;;;;5047137;28;20173;-53
2021/09/16 10:02:45;;;;;;;8.48;2.80;;;26.80;90.70;;;;;;5047316;28;20021;-52
2021/09/16 10:05:36;;;;;;;7.72;3.10;;;26.80;90.70;;;;;;5046977;28;20096;-51
2021/09/16 10:08:08;;;;;;;9.43;3.08;;;26.80;90.80;;;;;;5046745;28;20041;-47
2021/09/16 10:10:36;;;;;;;6.32;2.85;;;26.80;90.80;;;;;;5046869;28;20218;-51
2021/09/16 10:13:02;;;;;;;7.47;2.85;;;26.80;90.80;;;;;;5046777;28;20249;-51
2021/09/16 10:15:29;;;;;;;6.13;2.97;;;26.80;90.80;;;;;;5046814;28;20266;-54
2021/09/16 10:17:56;;;;;;;9.35;3.10;;;26.70;90.90;;;;;;5046744;28;20026;-52
2021/09/16 10:20:27;;;;;;;6.80;3.03;;;26.70;90.90;;;;;;5046626;28;20081;-52
2021/09/16 10:22:57;;;;;;;8.45;3.08;;;26.70;91.00;;;;;;5046652;28;20034;-54
2021/09/16 10:25:27;;;;;;;8.90;3.08;;;26.70;91.00;;;;;;5046563;28;20018;-49
2021/09/16 10:27:58;;;;;;;7.93;3.42;;;26.70;91.00;;;;;;5046448;28;20025;-54
2021/09/16 10:30:24;;;;;;;8.32;3.33;;;26.70;91.00;;;;;;5046557;28;20202;-54
2021/09/16 10:33:23;;;;;;;9.00;3.25;;;26.70;90.90;;;;;;5045983;28;20032;-50
2021/09/16 10:35:59;;;;;;;7.95;4.32;;;26.70;90.90;;;;;;5034890;28;20266;-49
2021/09/16 10:38:52;;;;;;;12.70;3.63;;;26.70;90.90;;;;;;5046547;28;20018;-53
2021/09/16 10:41:25;;;;;;;8.73;3.80;;;26.70;90.90;;;;;;5043662;28;20029;-51
2021/09/16 10:44:18;;;;;;;9.98;3.47;;;26.70;91.00;;;;;;5046250;28;20033;-52
2021/09/16 10:46:47;;;;;;;10.63;3.58;;;26.70;91.00;;;;;;5046320;28;20151;-49
2021/09/16 10:49:23;;;;;;;6.57;3.35;;;26.70;91.00;;;;;;5046259;28;20024;-53
2021/09/16 10:51:50;;;;;;;8.00;4.18;;;26.70;91.00;;;;;;5046018;28;20079;-51
2021/09/16 10:54:29;;;;;;;8.75;3.92;;;26.70;90.90;;;;;;5046007;28;20021;-51
2021/09/16 10:56:58;;;;;;;8.27;3.67;;;26.70;90.80;;;;;;5046321;28;20021;-52
2021/09/16 10:59:50;;;;;;;9.43;3.70;;;26.70;90.80;;;;;;5045848;28;20077;-53
2021/09/16 11:02:52;;;;;;;13.40;4.15;;;26.70;90.80;;;;;;5046334;28;20025;-49
2021/09/16 11:05:23;;;;;;;14.07;4.07;;;26.80;90.80;;;;;;4985385;28;20192;-54
2021/09/16 11:07:55;;;;;;;9.88;4.40;;;26.70;90.80;;;;;;5035130;28;20061;-48
2021/09/16 11:10:22;;;;;;;11.23;4.40;;;26.70;90.90;;;;;;5045753;28;20017;-51
2021/09/16 11:12:51;;;;;;;10.68;4.65;;;26.70;90.80;;;;;;5045714;28;20234;-48
2021/09/16 11:15:24;;;;;;;21.17;4.63;;;26.80;90.80;;;;;;5045094;28;20031;-49
2021/09/16 11:17:51;;;;;;;8.52;4.28;;;26.70;90.70;;;;;;5045616;28;20025;-47
2021/09/16 11:20:20;;;;;;;13.75;4.35;;;26.70;90.70;;;;;;5045362;28;20013;-51
2021/09/16 11:22:51;;;;;;;19.15;4.18;;;26.70;90.70;;;;;;5045781;28;20049;-53
2021/09/16 11:25:18;;;;;;;10.98;4.80;;;26.80;90.80;;;;;;5045110;28;20035;-59
2021/09/16 11:27:45;;;;;;;15.35;4.47;;;26.70;90.70;;;;;;5045441;28;20079;-55
2021/09/16 11:30:17;;;;;;;13.95;4.32;;;26.70;90.70;;;;;;5045116;28;20024;-55
2021/09/16 11:32:44;;;;;;;14.93;5.45;;;26.70;90.70;;;;;;5045434;28;20017;-51
2021/09/16 11:35:17;;;;;;;14.60;5.32;;;26.70;90.70;;;;;;5044719;28;20059;-52
2021/09/16 11:37:54;;;;;;;15.60;5.05;;;26.70;90.70;;;;;;5045529;28;20197;-54
2021/09/16 11:40:26;;;;;;;10.20;4.72;;;26.70;90.90;;;;;;5044679;28;20026;-53
2021/09/16 11:42:54;;;;;;;;;;;26.70;91.00;;;;;;5044835;28;20306;-48
2021/09/16 11:45:26;;;;;;;18.45;5.97;;;26.80;91.10;;;;;;5044151;28;19923;-52
2021/09/16 11:47:56;;;;;;;15.13;5.97;;;26.70;91.30;;;;;;5045341;28;20187;-51
2021/09/16 11:50:27;;;;;;;14.95;6.80;;;26.70;91.30;;;;;;5044632;28;20025;-48
2021/09/16 11:52:57;;;;;;;21.30;5.85;;;26.70;91.50;;;;;;5044652;28;20029;-48
2021/09/16 11:55:25;;;;;;;12.68;5.38;;;26.70;91.50;;;;;;5044927;28;20089;-48
2021/09/16 11:58:11;;;;;;;12.80;4.97;;;26.70;91.40;;;;;;5044452;28;20026;-49
2021/09/16 12:00:44;;;;;;;12.32;4.63;;;26.80;91.40;;;;;;5044496;28;20326;-53
2021/09/16 12:03:13;;;;;;;11.35;4.68;;;26.80;91.30;;;;;;5044313;28;20191;-49
2021/09/16 12:05:42;;;;;;;22.92;5.20;;;26.80;91.30;;;;;;5044341;28;20044;-49
2021/09/16 12:08:12;;;;;;;14.95;4.78;;;26.80;91.30;;;;;;5044392;28;20041;-52
2021/09/16 12:10:58;;;;;;;11.60;4.80;;;26.80;91.10;;;;;;5044329;28;20044;-50
2021/09/16 12:13:40;;;;;;;7.20;4.63;;;26.80;91.00;;;;;;5044126;28;20045;-53
2021/09/16 12:16:10;;;;;;;;;;;26.80;91.10;;;;;;5044454;28;20029;-51
2021/09/16 12:18:43;;;;;;;12.30;4.47;;;26.80;91.20;;;;;;5044013;28;20221;-53
2021/09/16 12:21:19;;;;;;;12.07;4.70;;;26.70;91.20;;;;;;5044193;28;20052;-50
2021/09/16 12:23:51;;;;;;;11.90;4.75;;;26.70;91.20;;;;;;5044081;28;20028;-52
2021/09/16 12:26:25;;;;;;;15.13;4.97;;;26.70;91.20;;;;;;5044247;28;20245;-50
2021/09/16 12:29:00;;;;;;;12.50;5.13;;;26.70;91.40;;;;;;5043958;28;20028;-47
2021/09/16 12:31:29;;;;;;;10.73;4.45;;;26.70;91.10;;;;;;5044425;28;20022;-57
2021/09/16 12:34:07;;;;;;;14.75;5.78;;;26.70;91.10;;;;;;5043994;28;20036;-52
2021/09/16 12:36:36;;;;;;;10.32;5.28;;;26.80;90.90;;;;;;5043827;28;20118;-45
2021/09/16 12:39:14;;;;;;;14.02;5.13;;;26.80;91.00;;;;;;5043861;28;20025;-51
2021/09/16 12:41:43;;;;;;;15.38;5.05;;;26.80;90.90;;;;;;5043979;28;20314;-52
2021/09/16 12:44:13;;;;;;;12.20;5.63;;;26.80;91.30;;;;;;5043975;28;20022;-54
2021/09/16 12:46:42;;;;;;;14.10;5.13;;;26.80;91.30;;;;;;5044103;28;20029;-55